sensor_id;sensor_type;location;lat;lon;timestamp;pressure;altitude;pressure_sealevel;temperature;humidity
59073;BME280;44859;51.934;15.554;2023-08-12T00:04:30;100274.33;;;17.49;69.33
59073;BME280;44859;51.934;15.554;2023-08-12T00:07:35;100269.70;;;17.42;69.25
59073;BME280;44859;51.934;15.554;2023-08-12T00:14:19;100278.86;;;17.28;69.48
59073;BME280;44859;51.934;15.554;2023-08-12T00:21:30;100278.23;;;17.18;69.57
59073;BME280;44859;51.934;15.554;2023-08-12T00:24:32;100273.02;;;17.14;69.77
59073;BME280;44859;51.934;15.554;2023-08-12T00:27:26;100268.87;;;17.10;69.81
59073;BME280;44859;51.934;15.554;2023-08-12T00:39:14;100265.98;;;17.00;69.70
59073;BME280;44859;51.934;15.554;2023-08-12T00:46:10;100260.49;;;16.97;69.73
59073;BME280;44859;51.934;15.554;2023-08-12T00:53:24;100263.31;;;16.90;69.97
59073;BME280;44859;51.934;15.554;2023-08-12T01:04:52;100243.73;;;16.77;70.18
59073;BME280;44859;51.934;15.554;2023-08-12T01:24:09;100234.56;;;16.76;69.88
59073;BME280;44859;51.934;15.554;2023-08-12T01:27:23;100235.66;;;16.78;69.84
59073;BME280;44859;51.934;15.554;2023-08-12T01:31:23;100231.58;;;16.78;69.82
59073;BME280;44859;51.934;15.554;2023-08-12T01:39:04;100231.02;;;16.74;69.99
59073;BME280;44859;51.934;15.554;2023-08-12T01:46:15;100224.10;;;16.58;70.16
59073;BME280;44859;51.934;15.554;2023-08-12T02:02:29;100226.27;;;16.38;71.02
59073;BME280;44859;51.934;15.554;2023-08-12T02:06:19;100225.20;;;16.39;70.88
59073;BME280;44859;51.934;15.554;2023-08-12T02:09:53;100224.95;;;16.45;70.83
59073;BME280;44859;51.934;15.554;2023-08-12T02:12:52;100222.59;;;16.51;70.46
59073;BME280;44859;51.934;15.554;2023-08-12T02:28:06;100222.23;;;16.22;70.97
59073;BME280;44859;51.934;15.554;2023-08-12T02:31:28;100216.74;;;16.19;71.17
59073;BME280;44859;51.934;15.554;2023-08-12T02:35:16;100215.23;;;16.15;71.09
59073;BME280;44859;51.934;15.554;2023-08-12T02:42:48;100213.42;;;16.07;71.37
59073;BME280;44859;51.934;15.554;2023-08-12T02:46:11;100213.55;;;16.03;71.56
59073;BME280;44859;51.934;15.554;2023-08-12T02:49:48;100217.95;;;16.00;71.64
59073;BME280;44859;51.934;15.554;2023-08-12T02:52:41;100210.65;;;15.95;71.81
59073;BME280;44859;51.934;15.554;2023-08-12T02:55:35;100212.90;;;15.91;71.91
59073;BME280;44859;51.934;15.554;2023-08-12T02:59:50;100204.55;;;15.88;72.05
59073;BME280;44859;51.934;15.554;2023-08-12T03:02:59;100212.95;;;15.84;72.05
59073;BME280;44859;51.934;15.554;2023-08-12T03:05:53;100212.23;;;15.81;72.43
59073;BME280;44859;51.934;15.554;2023-08-12T03:12:11;100211.49;;;15.79;72.64
59073;BME280;44859;51.934;15.554;2023-08-12T03:15:22;100208.91;;;15.78;72.62
59073;BME280;44859;51.934;15.554;2023-08-12T03:18:46;100209.90;;;15.79;72.70
59073;BME280;44859;51.934;15.554;2023-08-12T03:21:49;100205.78;;;15.80;72.69
59073;BME280;44859;51.934;15.554;2023-08-12T03:37:46;100185.30;;;15.79;72.82
59073;BME280;44859;51.934;15.554;2023-08-12T03:41:16;100181.22;;;15.79;72.75
59073;BME280;44859;51.934;15.554;2023-08-12T03:44:15;100174.36;;;15.78;72.83
59073;BME280;44859;51.934;15.554;2023-08-12T03:46:49;100172.92;;;15.78;72.78
59073;BME280;44859;51.934;15.554;2023-08-12T03:49:43;100172.05;;;15.75;72.91
59073;BME280;44859;51.934;15.554;2023-08-12T03:52:43;100173.70;;;15.71;73.09
59073;BME280;44859;51.934;15.554;2023-08-12T03:59:50;100167.61;;;15.61;73.45
59073;BME280;44859;51.934;15.554;2023-08-12T04:02:33;100169.52;;;15.57;73.50
59073;BME280;44859;51.934;15.554;2023-08-12T04:09:52;100161.49;;;15.49;74.04
59073;BME280;44859;51.934;15.554;2023-08-12T04:13:21;100167.86;;;15.47;74.16
59073;BME280;44859;51.934;15.554;2023-08-12T04:20:49;100167.12;;;15.38;74.65
59073;BME280;44859;51.934;15.554;2023-08-12T04:23:29;100166.54;;;15.39;74.67
59073;BME280;44859;51.934;15.554;2023-08-12T04:26:38;100164.05;;;15.42;74.88
59073;BME280;44859;51.934;15.554;2023-08-12T04:30:16;100164.55;;;15.49;75.03
59073;BME280;44859;51.934;15.554;2023-08-12T04:33:38;100159.96;;;15.57;75.09
59073;BME280;44859;51.934;15.554;2023-08-12T04:40:49;100155.78;;;15.81;74.84
59073;BME280;44859;51.934;15.554;2023-08-12T04:44:28;100158.21;;;15.93;74.62
59073;BME280;44859;51.934;15.554;2023-08-12T04:47:33;100159.48;;;16.06;74.98
59073;BME280;44859;51.934;15.554;2023-08-12T04:50:57;100156.63;;;16.17;74.79
59073;BME280;44859;51.934;15.554;2023-08-12T05:10:10;100159.86;;;16.22;73.97
59073;BME280;44859;51.934;15.554;2023-08-12T05:16:57;100150.91;;;16.17;74.27
59073;BME280;44859;51.934;15.554;2023-08-12T05:23:42;100146.54;;;16.14;74.79
59073;BME280;44859;51.934;15.554;2023-08-12T05:27:31;100142.10;;;16.20;74.79
59073;BME280;44859;51.934;15.554;2023-08-12T05:30:57;100147.91;;;16.23;74.69
59073;BME280;44859;51.934;15.554;2023-08-12T05:33:53;100149.44;;;16.24;74.83
59073;BME280;44859;51.934;15.554;2023-08-12T05:37:06;100142.91;;;16.26;74.78
59073;BME280;44859;51.934;15.554;2023-08-12T05:40:26;100142.19;;;16.26;74.82
59073;BME280;44859;51.934;15.554;2023-08-12T05:44:11;100140.27;;;16.29;74.84
59073;BME280;44859;51.934;15.554;2023-08-12T05:47:53;100142.37;;;16.31;74.74
59073;BME280;44859;51.934;15.554;2023-08-12T05:51:07;100139.75;;;16.34;74.70
59073;BME280;44859;51.934;15.554;2023-08-12T05:54:41;100138.48;;;16.36;74.72
59073;BME280;44859;51.934;15.554;2023-08-12T05:57:24;100135.32;;;16.41;74.61
59073;BME280;44859;51.934;15.554;2023-08-12T06:05:12;100134.67;;;16.62;74.39
59073;BME280;44859;51.934;15.554;2023-08-12T06:08:13;100130.67;;;16.68;74.31
59073;BME280;44859;51.934;15.554;2023-08-12T06:10:59;100135.74;;;16.79;74.11
59073;BME280;44859;51.934;15.554;2023-08-12T06:13:37;100131.48;;;16.90;74.04
59073;BME280;44859;51.934;15.554;2023-08-12T06:16:49;100129.44;;;17.07;73.98
59073;BME280;44859;51.934;15.554;2023-08-12T06:19:56;100128.96;;;17.41;73.83
59073;BME280;44859;51.934;15.554;2023-08-12T06:23:20;100129.86;;;17.68;72.95
59073;BME280;44859;51.934;15.554;2023-08-12T06:26:04;100133.15;;;17.87;72.47
59073;BME280;44859;51.934;15.554;2023-08-12T06:28:38;100130.20;;;17.95;71.85
59073;BME280;44859;51.934;15.554;2023-08-12T06:31:13;100123.61;;;18.03;71.76
59073;BME280;44859;51.934;15.554;2023-08-12T06:33:54;100122.25;;;18.19;71.35
59073;BME280;44859;51.934;15.554;2023-08-12T06:36:41;100124.29;;;18.34;70.83
59073;BME280;44859;51.934;15.554;2023-08-12T06:39:21;100123.39;;;18.37;70.48
59073;BME280;44859;51.934;15.554;2023-08-12T06:45:21;100125.02;;;18.50;70.01
59073;BME280;44859;51.934;15.554;2023-08-12T06:47:55;100124.12;;;18.66;69.65
59073;BME280;44859;51.934;15.554;2023-08-12T06:51:08;100119.49;;;18.90;69.47
59073;BME280;44859;51.934;15.554;2023-08-12T06:53:55;100120.27;;;19.21;68.85
59073;BME280;44859;51.934;15.554;2023-08-12T06:56:26;100113.77;;;19.51;68.02
59073;BME280;44859;51.934;15.554;2023-08-12T06:59:08;100112.03;;;19.70;67.43
59073;BME280;44859;51.934;15.554;2023-08-12T07:01:51;100108.86;;;19.96;67.09
59073;BME280;44859;51.934;15.554;2023-08-12T07:04:25;100108.48;;;20.35;66.34
59073;BME280;44859;51.934;15.554;2023-08-12T07:06:56;100102.46;;;20.60;65.43
59073;BME280;44859;51.934;15.554;2023-08-12T07:09:25;100099.95;;;20.70;64.83
59073;BME280;44859;51.934;15.554;2023-08-12T07:11:59;100096.05;;;20.68;64.53
59073;BME280;44859;51.934;15.554;2023-08-12T07:14:53;100094.63;;;20.61;64.77
59073;BME280;44859;51.934;15.554;2023-08-12T07:17:50;100094.77;;;20.87;64.73
59073;BME280;44859;51.934;15.554;2023-08-12T07:20:28;100094.46;;;21.27;63.80
59073;BME280;44859;51.934;15.554;2023-08-12T07:23:06;100091.04;;;21.48;63.07
59073;BME280;44859;51.934;15.554;2023-08-12T07:25:41;100090.29;;;21.61;62.63
59073;BME280;44859;51.934;15.554;2023-08-12T07:28:22;100091.16;;;21.70;62.25
59073;BME280;44859;51.934;15.554;2023-08-12T07:30:51;100089.31;;;21.95;61.90
59073;BME280;44859;51.934;15.554;2023-08-12T07:33:48;100089.77;;;22.02;61.49
59073;BME280;44859;51.934;15.554;2023-08-12T07:36:24;100088.73;;;21.94;61.36
59073;BME280;44859;51.934;15.554;2023-08-12T07:39:10;100089.73;;;21.84;61.21
59073;BME280;44859;51.934;15.554;2023-08-12T07:42:01;100088.26;;;21.69;61.24
59073;BME280;44859;51.934;15.554;2023-08-12T07:44:41;100087.80;;;21.74;61.38
59073;BME280;44859;51.934;15.554;2023-08-12T07:48:01;100085.59;;;21.85;61.44
59073;BME280;44859;51.934;15.554;2023-08-12T07:50:29;100082.13;;;21.91;60.97
59073;BME280;44859;51.934;15.554;2023-08-12T07:53:21;100080.25;;;21.84;60.90
59073;BME280;44859;51.934;15.554;2023-08-12T07:56:12;100078.25;;;21.73;61.04
59073;BME280;44859;51.934;15.554;2023-08-12T07:58:50;100080.43;;;21.55;61.16
59073;BME280;44859;51.934;15.554;2023-08-12T08:01:28;100076.20;;;21.40;61.84
59073;BME280;44859;51.934;15.554;2023-08-12T08:04:00;100080.58;;;21.35;62.40
59073;BME280;44859;51.934;15.554;2023-08-12T08:06:34;100078.37;;;21.41;62.76
59073;BME280;44859;51.934;15.554;2023-08-12T08:09:03;100075.80;;;21.61;62.89
59073;BME280;44859;51.934;15.554;2023-08-12T08:11:35;100070.30;;;21.92;62.67
59073;BME280;44859;51.934;15.554;2023-08-12T08:14:05;100068.33;;;22.23;62.57
59073;BME280;44859;51.934;15.554;2023-08-12T08:16:36;100061.45;;;22.45;61.97
59073;BME280;44859;51.934;15.554;2023-08-12T08:19:15;100058.30;;;22.67;61.29
59073;BME280;44859;51.934;15.554;2023-08-12T08:21:59;100058.05;;;22.81;61.02
59073;BME280;44859;51.934;15.554;2023-08-12T08:24:29;100056.48;;;22.78;61.17
59073;BME280;44859;51.934;15.554;2023-08-12T08:27:27;100057.36;;;22.82;60.92
59073;BME280;44859;51.934;15.554;2023-08-12T08:30:07;100061.20;;;22.91;60.86
59073;BME280;44859;51.934;15.554;2023-08-12T08:32:52;100063.16;;;22.96;60.79
59073;BME280;44859;51.934;15.554;2023-08-12T08:35:39;100065.29;;;22.91;60.45
59073;BME280;44859;51.934;15.554;2023-08-12T08:38:11;100067.45;;;22.78;60.87
59073;BME280;44859;51.934;15.554;2023-08-12T08:40:48;100069.98;;;22.65;61.13
59073;BME280;44859;51.934;15.554;2023-08-12T08:43:26;100070.83;;;22.50;61.43
59073;BME280;44859;51.934;15.554;2023-08-12T08:46:00;100073.48;;;22.44;61.69
59073;BME280;44859;51.934;15.554;2023-08-12T08:48:30;100074.02;;;22.46;61.92
59073;BME280;44859;51.934;15.554;2023-08-12T08:51:18;100074.08;;;22.63;62.21
59073;BME280;44859;51.934;15.554;2023-08-12T08:54:11;100071.84;;;23.05;61.87
59073;BME280;44859;51.934;15.554;2023-08-12T08:57:01;100065.30;;;23.47;61.10
59073;BME280;44859;51.934;15.554;2023-08-12T08:59:45;100068.27;;;23.77;60.17
59073;BME280;44859;51.934;15.554;2023-08-12T09:02:38;100063.30;;;24.08;59.54
59073;BME280;44859;51.934;15.554;2023-08-12T09:05:17;100062.86;;;24.46;58.22
59073;BME280;44859;51.934;15.554;2023-08-12T09:08:18;100059.48;;;24.79;57.01
59073;BME280;44859;51.934;15.554;2023-08-12T09:11:00;100056.67;;;25.23;56.08
59073;BME280;44859;51.934;15.554;2023-08-12T09:13:34;100055.41;;;25.49;55.29
59073;BME280;44859;51.934;15.554;2023-08-12T09:16:03;100056.19;;;25.46;54.99
59073;BME280;44859;51.934;15.554;2023-08-12T09:18:45;100052.41;;;25.58;54.84
59073;BME280;44859;51.934;15.554;2023-08-12T09:21:18;100051.22;;;25.74;54.03
59073;BME280;44859;51.934;15.554;2023-08-12T09:23:50;100054.12;;;25.64;53.92
59073;BME280;44859;51.934;15.554;2023-08-12T09:26:53;100052.44;;;25.41;54.18
59073;BME280;44859;51.934;15.554;2023-08-12T09:29:44;100051.09;;;25.23;54.76
59073;BME280;44859;51.934;15.554;2023-08-12T09:32:20;100051.69;;;25.05;55.51
59073;BME280;44859;51.934;15.554;2023-08-12T09:35:15;100051.02;;;24.99;55.28
59073;BME280;44859;51.934;15.554;2023-08-12T09:37:49;100051.46;;;24.84;55.19
59073;BME280;44859;51.934;15.554;2023-08-12T09:40:37;100041.73;;;24.81;55.57
59073;BME280;44859;51.934;15.554;2023-08-12T09:43:17;100038.98;;;25.14;55.66
59073;BME280;44859;51.934;15.554;2023-08-12T09:45:49;100036.91;;;25.64;55.29
59073;BME280;44859;51.934;15.554;2023-08-12T09:48:27;100034.44;;;26.10;53.98
59073;BME280;44859;51.934;15.554;2023-08-12T09:50:56;100036.29;;;26.61;52.44
59073;BME280;44859;51.934;15.554;2023-08-12T09:53:28;100029.02;;;26.95;51.56
59073;BME280;44859;51.934;15.554;2023-08-12T09:56:06;100028.52;;;27.06;50.99
59073;BME280;44859;51.934;15.554;2023-08-12T09:58:39;100029.40;;;27.16;50.43
59073;BME280;44859;51.934;15.554;2023-08-12T10:01:29;100014.50;;;27.28;50.85
59073;BME280;44859;51.934;15.554;2023-08-12T10:03:58;100017.37;;;27.53;50.29
59073;BME280;44859;51.934;15.554;2023-08-12T10:06:36;100014.25;;;27.53;49.35
59073;BME280;44859;51.934;15.554;2023-08-12T10:09:06;100013.38;;;27.58;48.87
59073;BME280;44859;51.934;15.554;2023-08-12T10:11:42;100006.54;;;27.67;48.58
59073;BME280;44859;51.934;15.554;2023-08-12T10:14:33;100004.18;;;27.75;47.57
59073;BME280;44859;51.934;15.554;2023-08-12T10:17:12;100003.13;;;27.81;47.31
59073;BME280;44859;51.934;15.554;2023-08-12T10:19:44;100003.91;;;27.91;46.00
59073;BME280;44859;51.934;15.554;2023-08-12T10:22:16;100001.57;;;28.06;45.33
59073;BME280;44859;51.934;15.554;2023-08-12T10:24:49;99996.36;;;28.25;44.75
59073;BME280;44859;51.934;15.554;2023-08-12T10:27:21;99998.06;;;28.44;44.09
59073;BME280;44859;51.934;15.554;2023-08-12T10:29:56;100001.15;;;28.64;43.88
59073;BME280;44859;51.934;15.554;2023-08-12T10:32:25;99999.17;;;28.85;43.50
59073;BME280;44859;51.934;15.554;2023-08-12T10:34:57;99998.64;;;28.82;43.04
59073;BME280;44859;51.934;15.554;2023-08-12T10:37:27;99991.30;;;28.72;42.49
59073;BME280;44859;51.934;15.554;2023-08-12T10:39:56;99989.88;;;28.67;42.64
59073;BME280;44859;51.934;15.554;2023-08-12T10:42:46;99996.21;;;28.40;42.81
59073;BME280;44859;51.934;15.554;2023-08-12T10:45:17;99996.27;;;28.19;43.07
59073;BME280;44859;51.934;15.554;2023-08-12T10:48:15;99999.66;;;28.07;43.40
59073;BME280;44859;51.934;15.554;2023-08-12T10:50:48;99998.98;;;28.10;43.81
59073;BME280;44859;51.934;15.554;2023-08-12T10:53:29;99996.36;;;28.03;43.86
59073;BME280;44859;51.934;15.554;2023-08-12T10:56:06;99992.25;;;27.95;44.10
59073;BME280;44859;51.934;15.554;2023-08-12T10:58:49;99992.67;;;28.05;44.34
59073;BME280;44859;51.934;15.554;2023-08-12T11:01:23;99989.30;;;28.38;44.67
59073;BME280;44859;51.934;15.554;2023-08-12T11:03:52;99986.75;;;28.71;44.89
59073;BME280;44859;51.934;15.554;2023-08-12T11:06:23;99979.73;;;29.12;43.59
59073;BME280;44859;51.934;15.554;2023-08-12T11:08:52;99978.02;;;29.46;42.68
59073;BME280;44859;51.934;15.554;2023-08-12T11:11:24;99976.80;;;29.68;42.05
59073;BME280;44859;51.934;15.554;2023-08-12T11:14:11;99977.04;;;29.86;41.35
59073;BME280;44859;51.934;15.554;2023-08-12T11:16:42;99977.70;;;30.07;40.96
59073;BME280;44859;51.934;15.554;2023-08-12T11:19:12;99970.63;;;30.24;40.64
59073;BME280;44859;51.934;15.554;2023-08-12T11:21:42;99969.70;;;30.18;40.77
59073;BME280;44859;51.934;15.554;2023-08-12T11:24:12;99967.04;;;30.13;40.98
59073;BME280;44859;51.934;15.554;2023-08-12T11:26:41;99963.37;;;30.20;40.63
59073;BME280;44859;51.934;15.554;2023-08-12T11:29:13;99963.18;;;30.24;40.58
59073;BME280;44859;51.934;15.554;2023-08-12T11:31:49;99958.68;;;30.13;39.90
59073;BME280;44859;51.934;15.554;2023-08-12T11:34:23;99956.92;;;29.94;39.36
59073;BME280;44859;51.934;15.554;2023-08-12T11:36:59;99951.87;;;29.83;39.59
59073;BME280;44859;51.934;15.554;2023-08-12T11:39:37;99949.31;;;29.93;40.24
59073;BME280;44859;51.934;15.554;2023-08-12T11:42:11;99942.80;;;29.99;39.86
59073;BME280;44859;51.934;15.554;2023-08-12T11:44:40;99938.21;;;29.89;39.75
59073;BME280;44859;51.934;15.554;2023-08-12T11:47:11;99937.90;;;29.97;40.38
59073;BME280;44859;51.934;15.554;2023-08-12T11:49:40;99933.41;;;30.02;39.97
59073;BME280;44859;51.934;15.554;2023-08-12T11:52:10;99933.66;;;30.09;39.86
59073;BME280;44859;51.934;15.554;2023-08-12T11:54:50;99928.29;;;30.19;39.07
59073;BME280;44859;51.934;15.554;2023-08-12T11:57:26;99922.37;;;30.14;39.17
59073;BME280;44859;51.934;15.554;2023-08-12T12:00:09;99922.89;;;30.29;39.60
59073;BME280;44859;51.934;15.554;2023-08-12T12:02:48;99919.35;;;30.52;39.26
59073;BME280;44859;51.934;15.554;2023-08-12T12:05:29;99921.00;;;30.78;39.02
59073;BME280;44859;51.934;15.554;2023-08-12T12:08:01;99910.43;;;30.95;38.81
59073;BME280;44859;51.934;15.554;2023-08-12T12:10:37;99914.02;;;30.82;38.59
59073;BME280;44859;51.934;15.554;2023-08-12T12:13:09;99913.15;;;30.71;38.68
59073;BME280;44859;51.934;15.554;2023-08-12T12:15:43;99908.86;;;30.55;38.84
59073;BME280;44859;51.934;15.554;2023-08-12T12:18:16;99902.86;;;30.35;39.03
59073;BME280;44859;51.934;15.554;2023-08-12T12:20:58;99907.36;;;29.97;39.36
59073;BME280;44859;51.934;15.554;2023-08-12T12:23:33;99907.05;;;29.65;40.00
59073;BME280;44859;51.934;15.554;2023-08-12T12:26:03;99908.41;;;29.42;40.20
59073;BME280;44859;51.934;15.554;2023-08-12T12:28:36;99904.86;;;29.28;40.34
59073;BME280;44859;51.934;15.554;2023-08-12T12:31:07;99906.16;;;29.43;40.38
59073;BME280;44859;51.934;15.554;2023-08-12T12:33:38;99900.86;;;29.37;40.41
59073;BME280;44859;51.934;15.554;2023-08-12T12:36:06;99901.20;;;29.23;40.75
59073;BME280;44859;51.934;15.554;2023-08-12T12:38:40;99899.91;;;28.91;40.88
59073;BME280;44859;51.934;15.554;2023-08-12T12:41:15;99896.14;;;28.71;41.77
59073;BME280;44859;51.934;15.554;2023-08-12T12:43:43;99894.15;;;28.68;42.49
59073;BME280;44859;51.934;15.554;2023-08-12T12:46:12;99890.69;;;28.61;42.53
59073;BME280;44859;51.934;15.554;2023-08-12T12:48:48;99889.11;;;28.51;42.55
59073;BME280;44859;51.934;15.554;2023-08-12T12:51:28;99881.96;;;28.44;42.83
59073;BME280;44859;51.934;15.554;2023-08-12T12:53:59;99878.36;;;28.40;43.27
59073;BME280;44859;51.934;15.554;2023-08-12T12:56:33;99873.22;;;28.46;43.49
59073;BME280;44859;51.934;15.554;2023-08-12T12:59:05;99872.23;;;28.53;43.89
59073;BME280;44859;51.934;15.554;2023-08-12T13:01:40;99867.77;;;28.54;44.27
59073;BME280;44859;51.934;15.554;2023-08-12T13:04:09;99864.70;;;28.55;43.55
59073;BME280;44859;51.934;15.554;2023-08-12T13:06:43;99861.44;;;28.54;43.65
59073;BME280;44859;51.934;15.554;2023-08-12T13:09:18;99855.41;;;28.49;43.93
59073;BME280;44859;51.934;15.554;2023-08-12T13:11:48;99853.60;;;28.43;43.78
59073;BME280;44859;51.934;15.554;2023-08-12T13:14:20;99851.05;;;28.39;43.69
59073;BME280;44859;51.934;15.554;2023-08-12T13:16:52;99850.50;;;28.40;43.57
59073;BME280;44859;51.934;15.554;2023-08-12T13:19:30;99850.45;;;28.45;43.69
59073;BME280;44859;51.934;15.554;2023-08-12T13:22:05;99847.00;;;28.54;44.02
59073;BME280;44859;51.934;15.554;2023-08-12T13:24:34;99841.06;;;28.57;45.08
59073;BME280;44859;51.934;15.554;2023-08-12T13:27:12;99841.09;;;28.62;45.43
59073;BME280;44859;51.934;15.554;2023-08-12T13:29:46;99836.54;;;28.64;44.95
59073;BME280;44859;51.934;15.554;2023-08-12T13:32:25;99834.13;;;28.69;44.55
59073;BME280;44859;51.934;15.554;2023-08-12T13:35:18;99832.95;;;28.72;45.06
59073;BME280;44859;51.934;15.554;2023-08-12T13:37:52;99832.62;;;28.73;44.35
59073;BME280;44859;51.934;15.554;2023-08-12T13:40:29;99826.95;;;28.80;43.96
59073;BME280;44859;51.934;15.554;2023-08-12T13:43:04;99821.42;;;28.85;44.08
59073;BME280;44859;51.934;15.554;2023-08-12T13:45:41;99817.46;;;28.82;44.27
59073;BME280;44859;51.934;15.554;2023-08-12T13:48:13;99816.85;;;28.76;44.41
59073;BME280;44859;51.934;15.554;2023-08-12T13:50:47;99812.73;;;28.68;45.21
59073;BME280;44859;51.934;15.554;2023-08-12T13:53:34;99811.58;;;28.56;45.09
59073;BME280;44859;51.934;15.554;2023-08-12T13:56:13;99808.20;;;28.52;45.41
59073;BME280;44859;51.934;15.554;2023-08-12T13:58:53;99809.39;;;28.51;44.96
59073;BME280;44859;51.934;15.554;2023-08-12T14:01:29;99802.30;;;28.55;44.46
59073;BME280;44859;51.934;15.554;2023-08-12T14:04:01;99798.09;;;28.58;44.33
59073;BME280;44859;51.934;15.554;2023-08-12T14:06:44;99799.98;;;28.60;43.95
59073;BME280;44859;51.934;15.554;2023-08-12T14:09:42;99802.35;;;28.60;44.79
59073;BME280;44859;51.934;15.554;2023-08-12T14:12:17;99802.41;;;28.58;44.33
59073;BME280;44859;51.934;15.554;2023-08-12T14:14:47;99799.54;;;28.62;44.49
59073;BME280;44859;51.934;15.554;2023-08-12T14:17:19;99794.25;;;28.63;44.54
59073;BME280;44859;51.934;15.554;2023-08-12T14:19:53;99795.63;;;28.68;44.18
59073;BME280;44859;51.934;15.554;2023-08-12T14:22:22;99793.27;;;28.74;44.55
59073;BME280;44859;51.934;15.554;2023-08-12T14:24:53;99792.16;;;28.80;44.42
59073;BME280;44859;51.934;15.554;2023-08-12T14:27:23;99789.38;;;28.85;44.04
59073;BME280;44859;51.934;15.554;2023-08-12T14:29:57;99787.37;;;28.93;44.36
59073;BME280;44859;51.934;15.554;2023-08-12T14:32:26;99784.72;;;28.96;44.11
59073;BME280;44859;51.934;15.554;2023-08-12T14:34:58;99783.02;;;28.97;44.13
59073;BME280;44859;51.934;15.554;2023-08-12T14:37:26;99780.75;;;28.90;44.37
59073;BME280;44859;51.934;15.554;2023-08-12T14:40:02;99778.94;;;28.83;44.58
59073;BME280;44859;51.934;15.554;2023-08-12T14:42:35;99772.94;;;28.83;44.87
59073;BME280;44859;51.934;15.554;2023-08-12T14:45:05;99772.70;;;28.85;44.89
59073;BME280;44859;51.934;15.554;2023-08-12T14:47:47;99771.52;;;28.84;44.23
59073;BME280;44859;51.934;15.554;2023-08-12T14:50:22;99775.27;;;28.82;44.21
59073;BME280;44859;51.934;15.554;2023-08-12T14:52:53;99775.20;;;28.75;43.65
59073;BME280;44859;51.934;15.554;2023-08-12T14:55:25;99772.39;;;28.66;43.01
59073;BME280;44859;51.934;15.554;2023-08-12T14:57:58;99771.45;;;28.60;42.91
59073;BME280;44859;51.934;15.554;2023-08-12T15:00:36;99764.39;;;28.56;43.26
59073;BME280;44859;51.934;15.554;2023-08-12T15:03:09;99765.52;;;28.53;43.06
59073;BME280;44859;51.934;15.554;2023-08-12T15:05:42;99760.47;;;28.48;42.89
59073;BME280;44859;51.934;15.554;2023-08-12T15:08:11;99761.27;;;28.45;42.94
59073;BME280;44859;51.934;15.554;2023-08-12T15:10:40;99760.31;;;28.36;42.88
59073;BME280;44859;51.934;15.554;2023-08-12T15:13:09;99759.38;;;28.31;42.30
59073;BME280;44859;51.934;15.554;2023-08-12T15:16:06;99761.30;;;28.32;42.08
59073;BME280;44859;51.934;15.554;2023-08-12T15:18:52;99762.02;;;28.30;41.71
59073;BME280;44859;51.934;15.554;2023-08-12T15:21:27;99763.60;;;28.29;41.62
59073;BME280;44859;51.934;15.554;2023-08-12T15:23:56;99760.60;;;28.29;41.65
59073;BME280;44859;51.934;15.554;2023-08-12T15:26:28;99757.54;;;28.31;41.47
59073;BME280;44859;51.934;15.554;2023-08-12T15:29:05;99753.67;;;28.32;41.54
59073;BME280;44859;51.934;15.554;2023-08-12T15:31:36;99754.55;;;28.29;41.58
59073;BME280;44859;51.934;15.554;2023-08-12T15:34:07;99754.81;;;28.26;41.54
59073;BME280;44859;51.934;15.554;2023-08-12T15:36:42;99758.52;;;28.19;41.36
59073;BME280;44859;51.934;15.554;2023-08-12T15:39:13;99762.13;;;28.17;41.57
59073;BME280;44859;51.934;15.554;2023-08-12T15:41:44;99763.59;;;28.17;41.48
59073;BME280;44859;51.934;15.554;2023-08-12T15:44:20;99767.84;;;28.18;41.47
59073;BME280;44859;51.934;15.554;2023-08-12T15:46:48;99762.22;;;28.18;41.89
59073;BME280;44859;51.934;15.554;2023-08-12T15:49:17;99760.28;;;28.19;41.63
59073;BME280;44859;51.934;15.554;2023-08-12T15:52:10;99758.05;;;28.15;41.72
59073;BME280;44859;51.934;15.554;2023-08-12T15:54:44;99752.27;;;28.12;41.67
59073;BME280;44859;51.934;15.554;2023-08-12T15:57:13;99748.27;;;28.08;41.56
59073;BME280;44859;51.934;15.554;2023-08-12T15:59:47;99746.68;;;28.04;41.84
59073;BME280;44859;51.934;15.554;2023-08-12T16:02:21;99743.95;;;27.98;42.08
59073;BME280;44859;51.934;15.554;2023-08-12T16:04:58;99740.20;;;27.91;42.34
59073;BME280;44859;51.934;15.554;2023-08-12T16:07:32;99734.03;;;27.83;42.49
59073;BME280;44859;51.934;15.554;2023-08-12T16:10:05;99735.94;;;27.76;42.59
59073;BME280;44859;51.934;15.554;2023-08-12T16:12:39;99737.06;;;27.70;43.05
59073;BME280;44859;51.934;15.554;2023-08-12T16:15:17;99732.27;;;27.65;42.92
59073;BME280;44859;51.934;15.554;2023-08-12T16:18:05;99729.83;;;27.61;42.79
59073;BME280;44859;51.934;15.554;2023-08-12T16:20:35;99731.69;;;27.59;43.06
59073;BME280;44859;51.934;15.554;2023-08-12T16:23:12;99736.72;;;27.56;43.32
59073;BME280;44859;51.934;15.554;2023-08-12T16:25:42;99732.08;;;27.53;43.43
59073;BME280;44859;51.934;15.554;2023-08-12T16:28:36;99727.48;;;27.51;43.55
59073;BME280;44859;51.934;15.554;2023-08-12T16:31:07;99726.29;;;27.49;44.01
59073;BME280;44859;51.934;15.554;2023-08-12T16:33:40;99721.02;;;27.46;44.58
59073;BME280;44859;51.934;15.554;2023-08-12T16:36:19;99716.64;;;27.38;45.08
59073;BME280;44859;51.934;15.554;2023-08-12T16:38:48;99720.54;;;27.29;45.68
59073;BME280;44859;51.934;15.554;2023-08-12T16:41:19;99714.70;;;27.20;46.43
59073;BME280;44859;51.934;15.554;2023-08-12T16:43:48;99714.30;;;27.10;46.94
59073;BME280;44859;51.934;15.554;2023-08-12T16:46:22;99716.20;;;27.02;47.64
59073;BME280;44859;51.934;15.554;2023-08-12T16:49:01;99717.01;;;26.90;48.74
59073;BME280;44859;51.934;15.554;2023-08-12T16:51:39;99722.23;;;26.78;49.47